sensor_id;sensor_type;location;lat;lon;timestamp;temperature;humidity
8888;DHT22;4480;52.370;9.748;2024-03-02T00:00:31;8.90;99.90
8888;DHT22;4480;52.370;9.748;2024-03-02T00:02:58;8.90;99.90
8888;DHT22;4480;52.370;9.748;2024-03-02T00:05:25;8.90;99.90
8888;DHT22;4480;52.370;9.748;2024-03-02T00:07:53;8.90;99.90
8888;DHT22;4480;52.370;9.748;2024-03-02T00:10:23;8.90;99.90
8888;DHT22;4480;52.370;9.748;2024-03-02T00:12:54;8.90;99.90
8888;DHT22;4480;52.370;9.748;2024-03-02T00:15:45;8.90;99.90
8888;DHT22;4480;52.370;9.748;2024-03-02T00:18:13;8.90;99.90
8888;DHT22;4480;52.370;9.748;2024-03-02T00:20:40;8.90;99.90
8888;DHT22;4480;52.370;9.748;2024-03-02T00:23:09;8.90;99.90
8888;DHT22;4480;52.370;9.748;2024-03-02T00:25:40;8.90;99.90
8888;DHT22;4480;52.370;9.748;2024-03-02T00:28:14;8.90;99.90
8888;DHT22;4480;52.370;9.748;2024-03-02T00:30:56;8.90;99.90
8888;DHT22;4480;52.370;9.748;2024-03-02T00:33:26;8.90;99.90
8888;DHT22;4480;52.370;9.748;2024-03-02T00:35:53;8.90;99.90
8888;DHT22;4480;52.370;9.748;2024-03-02T00:38:20;8.90;99.90
8888;DHT22;4480;52.370;9.748;2024-03-02T00:40:48;8.90;99.90
8888;DHT22;4480;52.370;9.748;2024-03-02T00:43:43;8.80;99.90
8888;DHT22;4480;52.370;9.748;2024-03-02T00:46:13;8.90;99.90
8888;DHT22;4480;52.370;9.748;2024-03-02T00:48:53;8.80;99.90
8888;DHT22;4480;52.370;9.748;2024-03-02T00:51:21;8.80;99.90
8888;DHT22;4480;52.370;9.748;2024-03-02T00:53:49;8.80;99.90
8888;DHT22;4480;52.370;9.748;2024-03-02T00:56:16;8.80;99.90
8888;DHT22;4480;52.370;9.748;2024-03-02T00:58:43;8.80;99.90
8888;DHT22;4480;52.370;9.748;2024-03-02T01:01:11;8.80;99.90
8888;DHT22;4480;52.370;9.748;2024-03-02T01:03:38;8.80;99.90
8888;DHT22;4480;52.370;9.748;2024-03-02T01:06:05;8.80;99.90
8888;DHT22;4480;52.370;9.748;2024-03-02T01:08:33;8.80;99.90
8888;DHT22;4480;52.370;9.748;2024-03-02T01:11:00;8.80;99.90
8888;DHT22;4480;52.370;9.748;2024-03-02T01:13:26;8.90;99.90
8888;DHT22;4480;52.370;9.748;2024-03-02T01:15:53;8.90;99.90
8888;DHT22;4480;52.370;9.748;2024-03-02T01:18:21;8.90;99.90
8888;DHT22;4480;52.370;9.748;2024-03-02T01:20:49;8.90;99.90
8888;DHT22;4480;52.370;9.748;2024-03-02T01:23:17;8.90;99.90
8888;DHT22;4480;52.370;9.748;2024-03-02T01:25:45;8.90;99.90
8888;DHT22;4480;52.370;9.748;2024-03-02T01:28:11;8.90;99.90
8888;DHT22;4480;52.370;9.748;2024-03-02T01:30:38;8.90;99.90
8888;DHT22;4480;52.370;9.748;2024-03-02T01:33:05;8.90;99.90
8888;DHT22;4480;52.370;9.748;2024-03-02T01:35:32;8.90;99.90
8888;DHT22;4480;52.370;9.748;2024-03-02T01:38:00;8.90;99.90
8888;DHT22;4480;52.370;9.748;2024-03-02T01:40:27;8.90;99.90
8888;DHT22;4480;52.370;9.748;2024-03-02T01:42:54;8.90;99.90
8888;DHT22;4480;52.370;9.748;2024-03-02T01:45:23;8.90;99.90
8888;DHT22;4480;52.370;9.748;2024-03-02T01:47:50;8.80;99.90
8888;DHT22;4480;52.370;9.748;2024-03-02T01:50:25;8.90;99.90
8888;DHT22;4480;52.370;9.748;2024-03-02T01:52:53;8.80;99.90
8888;DHT22;4480;52.370;9.748;2024-03-02T01:55:20;8.80;99.90
8888;DHT22;4480;52.370;9.748;2024-03-02T01:57:48;8.80;99.90
8888;DHT22;4480;52.370;9.748;2024-03-02T02:00:16;8.80;99.90
8888;DHT22;4480;52.370;9.748;2024-03-02T02:02:43;8.80;99.90
8888;DHT22;4480;52.370;9.748;2024-03-02T02:05:10;8.80;99.90
8888;DHT22;4480;52.370;9.748;2024-03-02T02:07:37;8.80;99.90
8888;DHT22;4480;52.370;9.748;2024-03-02T02:10:06;8.80;99.90
8888;DHT22;4480;52.370;9.748;2024-03-02T02:12:33;8.80;99.90
8888;DHT22;4480;52.370;9.748;2024-03-02T02:15:00;8.80;99.90
8888;DHT22;4480;52.370;9.748;2024-03-02T02:17:27;8.80;99.90
8888;DHT22;4480;52.370;9.748;2024-03-02T02:19:53;8.80;99.90
8888;DHT22;4480;52.370;9.748;2024-03-02T02:22:21;8.80;99.90
8888;DHT22;4480;52.370;9.748;2024-03-02T02:24:48;8.70;99.90
8888;DHT22;4480;52.370;9.748;2024-03-02T02:27:15;8.70;99.90
8888;DHT22;4480;52.370;9.748;2024-03-02T02:29:42;8.70;99.90
8888;DHT22;4480;52.370;9.748;2024-03-02T02:32:08;8.70;99.90
8888;DHT22;4480;52.370;9.748;2024-03-02T02:34:35;8.70;99.90
8888;DHT22;4480;52.370;9.748;2024-03-02T02:37:02;8.60;99.90
8888;DHT22;4480;52.370;9.748;2024-03-02T02:39:30;8.60;99.90
8888;DHT22;4480;52.370;9.748;2024-03-02T02:41:57;8.70;99.90
8888;DHT22;4480;52.370;9.748;2024-03-02T02:44:23;8.60;99.90
8888;DHT22;4480;52.370;9.748;2024-03-02T02:46:50;8.60;99.90
8888;DHT22;4480;52.370;9.748;2024-03-02T02:49:17;8.60;99.90
8888;DHT22;4480;52.370;9.748;2024-03-02T02:51:44;8.60;99.90
8888;DHT22;4480;52.370;9.748;2024-03-02T02:54:10;8.60;99.90
8888;DHT22;4480;52.370;9.748;2024-03-02T02:56:38;8.60;99.90
8888;DHT22;4480;52.370;9.748;2024-03-02T02:59:05;8.60;99.90
8888;DHT22;4480;52.370;9.748;2024-03-02T03:01:32;8.60;99.90
8888;DHT22;4480;52.370;9.748;2024-03-02T03:03:59;8.60;99.90
8888;DHT22;4480;52.370;9.748;2024-03-02T03:06:25;8.60;99.90
8888;DHT22;4480;52.370;9.748;2024-03-02T03:08:52;8.60;99.90
8888;DHT22;4480;52.370;9.748;2024-03-02T03:11:19;8.60;99.90
8888;DHT22;4480;52.370;9.748;2024-03-02T03:13:48;8.60;99.90
8888;DHT22;4480;52.370;9.748;2024-03-02T03:16:15;8.60;99.90
8888;DHT22;4480;52.370;9.748;2024-03-02T03:18:41;8.50;99.90
8888;DHT22;4480;52.370;9.748;2024-03-02T03:21:08;8.50;99.90
8888;DHT22;4480;52.370;9.748;2024-03-02T03:23:35;8.40;99.90
8888;DHT22;4480;52.370;9.748;2024-03-02T03:26:02;8.40;99.90
8888;DHT22;4480;52.370;9.748;2024-03-02T03:28:28;8.40;99.90
8888;DHT22;4480;52.370;9.748;2024-03-02T03:30:56;8.30;99.90
8888;DHT22;4480;52.370;9.748;2024-03-02T03:33:23;8.30;99.90
8888;DHT22;4480;52.370;9.748;2024-03-02T03:35:50;8.20;99.90
8888;DHT22;4480;52.370;9.748;2024-03-02T03:38:16;8.10;99.90
8888;DHT22;4480;52.370;9.748;2024-03-02T03:40:43;8.10;99.90
8888;DHT22;4480;52.370;9.748;2024-03-02T03:43:10;8.00;99.90
8888;DHT22;4480;52.370;9.748;2024-03-02T03:45:37;8.00;99.90
8888;DHT22;4480;52.370;9.748;2024-03-02T03:48:05;7.90;99.90
8888;DHT22;4480;52.370;9.748;2024-03-02T03:50:32;7.90;99.90
8888;DHT22;4480;52.370;9.748;2024-03-02T03:52:59;7.80;99.90
8888;DHT22;4480;52.370;9.748;2024-03-02T03:55:25;7.80;99.90
8888;DHT22;4480;52.370;9.748;2024-03-02T03:57:52;7.70;99.90
8888;DHT22;4480;52.370;9.748;2024-03-02T04:00:19;7.70;99.90
8888;DHT22;4480;52.370;9.748;2024-03-02T04:02:46;7.60;99.90
8888;DHT22;4480;52.370;9.748;2024-03-02T04:05:14;7.60;99.90
8888;DHT22;4480;52.370;9.748;2024-03-02T04:07:41;7.60;99.90
8888;DHT22;4480;52.370;9.748;2024-03-02T04:13:18;7.50;99.90
8888;DHT22;4480;52.370;9.748;2024-03-02T04:15:44;7.50;99.90
8888;DHT22;4480;52.370;9.748;2024-03-02T04:18:11;7.50;99.90
8888;DHT22;4480;52.370;9.748;2024-03-02T04:20:38;7.50;99.90
8888;DHT22;4480;52.370;9.748;2024-03-02T04:23:04;7.50;99.90
8888;DHT22;4480;52.370;9.748;2024-03-02T04:25:31;7.50;99.90
8888;DHT22;4480;52.370;9.748;2024-03-02T04:27:58;7.50;99.90
8888;DHT22;4480;52.370;9.748;2024-03-02T04:30:26;7.50;99.90
8888;DHT22;4480;52.370;9.748;2024-03-02T04:32:53;7.50;99.90
8888;DHT22;4480;52.370;9.748;2024-03-02T04:35:19;7.50;99.90
8888;DHT22;4480;52.370;9.748;2024-03-02T04:37:46;7.50;99.90
8888;DHT22;4480;52.370;9.748;2024-03-02T04:40:13;7.50;99.90
8888;DHT22;4480;52.370;9.748;2024-03-02T04:42:40;7.50;99.90
8888;DHT22;4480;52.370;9.748;2024-03-02T04:45:07;7.50;99.90
8888;DHT22;4480;52.370;9.748;2024-03-02T04:47:35;7.50;99.90
8888;DHT22;4480;52.370;9.748;2024-03-02T04:50:03;7.50;99.90
8888;DHT22;4480;52.370;9.748;2024-03-02T04:52:29;7.40;99.90
8888;DHT22;4480;52.370;9.748;2024-03-02T04:54:56;7.40;99.90
8888;DHT22;4480;52.370;9.748;2024-03-02T04:57:45;7.40;99.90
8888;DHT22;4480;52.370;9.748;2024-03-02T05:00:13;7.40;99.90
8888;DHT22;4480;52.370;9.748;2024-03-02T05:02:41;7.40;99.90
8888;DHT22;4480;52.370;9.748;2024-03-02T05:05:08;7.30;99.90
8888;DHT22;4480;52.370;9.748;2024-03-02T05:07:35;7.30;99.90
8888;DHT22;4480;52.370;9.748;2024-03-02T05:10:02;7.30;99.90
8888;DHT22;4480;52.370;9.748;2024-03-02T05:12:29;7.30;99.90
8888;DHT22;4480;52.370;9.748;2024-03-02T05:15:22;7.20;99.90
8888;DHT22;4480;52.370;9.748;2024-03-02T05:17:50;7.20;99.90
8888;DHT22;4480;52.370;9.748;2024-03-02T05:20:17;7.20;99.90
8888;DHT22;4480;52.370;9.748;2024-03-02T05:22:44;7.20;99.90
8888;DHT22;4480;52.370;9.748;2024-03-02T05:25:11;7.10;99.90
8888;DHT22;4480;52.370;9.748;2024-03-02T05:27:38;7.10;99.90
8888;DHT22;4480;52.370;9.748;2024-03-02T05:30:05;7.10;99.90
8888;DHT22;4480;52.370;9.748;2024-03-02T05:32:33;7.00;99.90
8888;DHT22;4480;52.370;9.748;2024-03-02T05:35:01;7.00;99.90
8888;DHT22;4480;52.370;9.748;2024-03-02T05:37:28;7.00;99.90
8888;DHT22;4480;52.370;9.748;2024-03-02T05:39:55;7.00;99.90
8888;DHT22;4480;52.370;9.748;2024-03-02T05:42:22;6.90;99.90
8888;DHT22;4480;52.370;9.748;2024-03-02T05:44:48;6.90;99.90
8888;DHT22;4480;52.370;9.748;2024-03-02T05:47:15;6.90;99.90
8888;DHT22;4480;52.370;9.748;2024-03-02T05:49:42;6.80;99.90
8888;DHT22;4480;52.370;9.748;2024-03-02T05:52:10;6.80;99.90
8888;DHT22;4480;52.370;9.748;2024-03-02T05:54:38;6.80;99.90
8888;DHT22;4480;52.370;9.748;2024-03-02T05:57:05;6.80;99.90
8888;DHT22;4480;52.370;9.748;2024-03-02T05:59:52;6.70;99.90
8888;DHT22;4480;52.370;9.748;2024-03-02T06:02:19;6.60;99.90
8888;DHT22;4480;52.370;9.748;2024-03-02T06:04:46;6.60;99.90
8888;DHT22;4480;52.370;9.748;2024-03-02T06:07:14;6.60;99.90
8888;DHT22;4480;52.370;9.748;2024-03-02T06:09:41;6.50;99.90
8888;DHT22;4480;52.370;9.748;2024-03-02T06:12:08;6.50;99.90
8888;DHT22;4480;52.370;9.748;2024-03-02T06:14:34;6.50;99.90
8888;DHT22;4480;52.370;9.748;2024-03-02T06:17:01;6.50;99.90
8888;DHT22;4480;52.370;9.748;2024-03-02T06:19:28;6.50;99.90
8888;DHT22;4480;52.370;9.748;2024-03-02T06:21:54;6.50;99.90
8888;DHT22;4480;52.370;9.748;2024-03-02T06:24:22;6.50;99.90
8888;DHT22;4480;52.370;9.748;2024-03-02T06:26:49;6.50;99.90
8888;DHT22;4480;52.370;9.748;2024-03-02T06:29:16;6.40;99.90
8888;DHT22;4480;52.370;9.748;2024-03-02T06:31:43;6.40;99.90
8888;DHT22;4480;52.370;9.748;2024-03-02T06:34:09;6.50;99.90
8888;DHT22;4480;52.370;9.748;2024-03-02T06:36:36;6.50;99.90
8888;DHT22;4480;52.370;9.748;2024-03-02T06:39:05;6.50;99.90
8888;DHT22;4480;52.370;9.748;2024-03-02T06:41:33;6.60;99.90
8888;DHT22;4480;52.370;9.748;2024-03-02T06:44:00;6.60;99.90
8888;DHT22;4480;52.370;9.748;2024-03-02T06:46:27;6.60;99.90
8888;DHT22;4480;52.370;9.748;2024-03-02T06:48:54;6.70;99.90
8888;DHT22;4480;52.370;9.748;2024-03-02T06:51:21;6.70;99.90
8888;DHT22;4480;52.370;9.748;2024-03-02T06:53:48;6.90;99.90
8888;DHT22;4480;52.370;9.748;2024-03-02T06:56:14;6.90;99.90
8888;DHT22;4480;52.370;9.748;2024-03-02T06:58:43;7.10;99.90
8888;DHT22;4480;52.370;9.748;2024-03-02T07:01:09;7.10;99.90
8888;DHT22;4480;52.370;9.748;2024-03-02T07:03:36;7.20;99.90
8888;DHT22;4480;52.370;9.748;2024-03-02T07:06:04;7.30;99.90
8888;DHT22;4480;52.370;9.748;2024-03-02T07:08:31;7.40;99.90
8888;DHT22;4480;52.370;9.748;2024-03-02T07:10:58;7.50;99.90
8888;DHT22;4480;52.370;9.748;2024-03-02T07:13:25;7.60;99.90
8888;DHT22;4480;52.370;9.748;2024-03-02T07:15:53;7.70;99.90
8888;DHT22;4480;52.370;9.748;2024-03-02T07:18:52;7.80;99.90
8888;DHT22;4480;52.370;9.748;2024-03-02T07:21:20;7.90;99.90
8888;DHT22;4480;52.370;9.748;2024-03-02T07:23:47;8.00;99.90
8888;DHT22;4480;52.370;9.748;2024-03-02T07:26:14;8.00;99.90
8888;DHT22;4480;52.370;9.748;2024-03-02T07:28:42;8.10;99.90
8888;DHT22;4480;52.370;9.748;2024-03-02T07:31:10;8.20;99.90
8888;DHT22;4480;52.370;9.748;2024-03-02T07:33:37;8.30;99.90
8888;DHT22;4480;52.370;9.748;2024-03-02T07:36:04;8.40;99.90
8888;DHT22;4480;52.370;9.748;2024-03-02T07:38:31;8.50;99.90
8888;DHT22;4480;52.370;9.748;2024-03-02T07:41:00;8.50;99.90
8888;DHT22;4480;52.370;9.748;2024-03-02T07:43:28;8.50;99.90
8888;DHT22;4480;52.370;9.748;2024-03-02T07:45:54;8.60;99.90
8888;DHT22;4480;52.370;9.748;2024-03-02T07:48:23;8.70;99.90
8888;DHT22;4480;52.370;9.748;2024-03-02T07:50:50;8.80;99.90
8888;DHT22;4480;52.370;9.748;2024-03-02T07:53:17;8.80;99.90
8888;DHT22;4480;52.370;9.748;2024-03-02T07:55:44;8.90;99.90
8888;DHT22;4480;52.370;9.748;2024-03-02T07:58:11;9.00;99.90
8888;DHT22;4480;52.370;9.748;2024-03-02T08:00:38;9.00;99.90
8888;DHT22;4480;52.370;9.748;2024-03-02T08:03:05;9.10;99.90
8888;DHT22;4480;52.370;9.748;2024-03-02T08:05:34;9.20;99.90
8888;DHT22;4480;52.370;9.748;2024-03-02T08:08:01;9.30;99.90
8888;DHT22;4480;52.370;9.748;2024-03-02T08:10:27;9.40;99.90
8888;DHT22;4480;52.370;9.748;2024-03-02T08:12:54;9.50;99.90
8888;DHT22;4480;52.370;9.748;2024-03-02T08:15:21;9.60;99.90
8888;DHT22;4480;52.370;9.748;2024-03-02T08:17:48;9.80;99.90
8888;DHT22;4480;52.370;9.748;2024-03-02T08:20:15;9.90;99.90
8888;DHT22;4480;52.370;9.748;2024-03-02T08:22:43;10.00;99.90
8888;DHT22;4480;52.370;9.748;2024-03-02T08:25:10;10.20;99.90
8888;DHT22;4480;52.370;9.748;2024-03-02T08:27:37;10.30;99.90
8888;DHT22;4480;52.370;9.748;2024-03-02T08:30:05;10.50;99.90
8888;DHT22;4480;52.370;9.748;2024-03-02T08:32:33;10.60;99.90
8888;DHT22;4480;52.370;9.748;2024-03-02T08:35:00;10.80;99.90
8888;DHT22;4480;52.370;9.748;2024-03-02T08:37:27;10.90;99.90
8888;DHT22;4480;52.370;9.748;2024-03-02T08:39:55;11.00;99.90
8888;DHT22;4480;52.370;9.748;2024-03-02T08:42:22;11.10;99.90
8888;DHT22;4480;52.370;9.748;2024-03-02T08:44:49;11.10;99.90
8888;DHT22;4480;52.370;9.748;2024-03-02T08:47:16;11.20;99.90
8888;DHT22;4480;52.370;9.748;2024-03-02T08:49:43;11.20;99.90
8888;DHT22;4480;52.370;9.748;2024-03-02T08:52:10;11.30;99.90
8888;DHT22;4480;52.370;9.748;2024-03-02T08:54:36;11.40;99.90
8888;DHT22;4480;52.370;9.748;2024-03-02T08:57:05;11.50;99.90
8888;DHT22;4480;52.370;9.748;2024-03-02T08:59:32;11.60;99.90
8888;DHT22;4480;52.370;9.748;2024-03-02T09:01:59;11.70;99.90
8888;DHT22;4480;52.370;9.748;2024-03-02T09:04:26;11.70;99.90
8888;DHT22;4480;52.370;9.748;2024-03-02T09:06:53;11.70;99.90
8888;DHT22;4480;52.370;9.748;2024-03-02T09:09:20;11.80;99.90
8888;DHT22;4480;52.370;9.748;2024-03-02T09:11:47;11.90;99.90
8888;DHT22;4480;52.370;9.748;2024-03-02T09:14:15;11.90;99.90
8888;DHT22;4480;52.370;9.748;2024-03-02T09:16:42;11.90;99.90
8888;DHT22;4480;52.370;9.748;2024-03-02T09:19:09;12.00;99.90
8888;DHT22;4480;52.370;9.748;2024-03-02T09:21:36;12.00;99.90
8888;DHT22;4480;52.370;9.748;2024-03-02T09:24:03;12.10;99.90
8888;DHT22;4480;52.370;9.748;2024-03-02T09:26:32;12.10;99.90
8888;DHT22;4480;52.370;9.748;2024-03-02T09:28:58;12.30;99.90
8888;DHT22;4480;52.370;9.748;2024-03-02T09:31:26;12.40;99.70
8888;DHT22;4480;52.370;9.748;2024-03-02T09:33:53;12.50;99.20
8888;DHT22;4480;52.370;9.748;2024-03-02T09:36:21;12.60;98.70
8888;DHT22;4480;52.370;9.748;2024-03-02T09:38:48;12.70;98.00
8888;DHT22;4480;52.370;9.748;2024-03-02T09:41:15;12.70;97.30
8888;DHT22;4480;52.370;9.748;2024-03-02T09:43:42;12.80;96.90
8888;DHT22;4480;52.370;9.748;2024-03-02T09:46:09;12.90;96.60
8888;DHT22;4480;52.370;9.748;2024-03-02T09:48:38;12.90;95.80
8888;DHT22;4480;52.370;9.748;2024-03-02T09:51:05;12.90;95.40
8888;DHT22;4480;52.370;9.748;2024-03-02T09:53:32;12.90;95.10
8888;DHT22;4480;52.370;9.748;2024-03-02T09:56:00;12.90;94.90
8888;DHT22;4480;52.370;9.748;2024-03-02T09:58:27;12.90;94.60
8888;DHT22;4480;52.370;9.748;2024-03-02T10:00:53;13.00;94.40
8888;DHT22;4480;52.370;9.748;2024-03-02T10:03:20;13.00;94.20
8888;DHT22;4480;52.370;9.748;2024-03-02T10:05:51;13.00;93.50
8888;DHT22;4480;52.370;9.748;2024-03-02T10:08:18;13.00;93.10
8888;DHT22;4480;52.370;9.748;2024-03-02T10:10:44;13.00;93.00
8888;DHT22;4480;52.370;9.748;2024-03-02T10:13:12;13.00;92.80
8888;DHT22;4480;52.370;9.748;2024-03-02T10:15:40;13.00;92.40
8888;DHT22;4480;52.370;9.748;2024-03-02T10:18:09;13.00;92.30
8888;DHT22;4480;52.370;9.748;2024-03-02T10:20:37;13.10;92.00
8888;DHT22;4480;52.370;9.748;2024-03-02T10:23:12;13.10;92.00
8888;DHT22;4480;52.370;9.748;2024-03-02T10:25:39;13.20;91.70
8888;DHT22;4480;52.370;9.748;2024-03-02T10:28:06;13.30;91.40
8888;DHT22;4480;52.370;9.748;2024-03-02T10:30:33;13.40;90.90
8888;DHT22;4480;52.370;9.748;2024-03-02T10:33:00;13.40;90.60
8888;DHT22;4480;52.370;9.748;2024-03-02T10:35:27;13.60;90.20
8888;DHT22;4480;52.370;9.748;2024-03-02T10:37:58;13.80;89.10
8888;DHT22;4480;52.370;9.748;2024-03-02T10:40:27;13.90;87.20
8888;DHT22;4480;52.370;9.748;2024-03-02T10:42:54;14.00;86.00
8888;DHT22;4480;52.370;9.748;2024-03-02T10:45:21;14.00;85.30
8888;DHT22;4480;52.370;9.748;2024-03-02T10:47:50;14.00;84.40
8888;DHT22;4480;52.370;9.748;2024-03-02T10:50:17;14.00;83.70
8888;DHT22;4480;52.370;9.748;2024-03-02T10:52:44;14.00;83.10
8888;DHT22;4480;52.370;9.748;2024-03-02T10:55:11;14.00;82.80
8888;DHT22;4480;52.370;9.748;2024-03-02T10:57:50;14.10;82.50
8888;DHT22;4480;52.370;9.748;2024-03-02T11:00:18;14.10;81.40
8888;DHT22;4480;52.370;9.748;2024-03-02T11:02:51;14.10;80.70
8888;DHT22;4480;52.370;9.748;2024-03-02T11:05:26;14.20;79.70
8888;DHT22;4480;52.370;9.748;2024-03-02T11:07:57;14.20;79.00
8888;DHT22;4480;52.370;9.748;2024-03-02T11:10:24;14.30;78.00
8888;DHT22;4480;52.370;9.748;2024-03-02T11:12:58;14.40;77.30
8888;DHT22;4480;52.370;9.748;2024-03-02T11:15:27;14.50;76.50
8888;DHT22;4480;52.370;9.748;2024-03-02T11:17:54;14.60;75.90
8888;DHT22;4480;52.370;9.748;2024-03-02T11:20:22;14.70;75.10
8888;DHT22;4480;52.370;9.748;2024-03-02T11:22:50;14.70;74.20
8888;DHT22;4480;52.370;9.748;2024-03-02T11:25:24;14.80;73.60
8888;DHT22;4480;52.370;9.748;2024-03-02T11:28:03;14.80;73.70
8888;DHT22;4480;52.370;9.748;2024-03-02T11:30:48;14.70;72.70
8888;DHT22;4480;52.370;9.748;2024-03-02T11:33:23;14.60;72.20
8888;DHT22;4480;52.370;9.748;2024-03-02T11:35:50;14.50;72.20
8888;DHT22;4480;52.370;9.748;2024-03-02T11:38:18;14.40;72.00
8888;DHT22;4480;52.370;9.748;2024-03-02T11:40:44;14.40;72.30
8888;DHT22;4480;52.370;9.748;2024-03-02T11:43:12;14.40;72.20
8888;DHT22;4480;52.370;9.748;2024-03-02T11:45:42;14.60;71.80
8888;DHT22;4480;52.370;9.748;2024-03-02T11:48:11;14.70;71.10
8888;DHT22;4480;52.370;9.748;2024-03-02T11:50:40;14.80;70.30
8888;DHT22;4480;52.370;9.748;2024-03-02T11:53:09;14.90;69.90
8888;DHT22;4480;52.370;9.748;2024-03-02T11:55:38;14.90;69.30
8888;DHT22;4480;52.370;9.748;2024-03-02T11:58:06;15.00;68.70
8888;DHT22;4480;52.370;9.748;2024-03-02T12:00:34;15.00;68.10
8888;DHT22;4480;52.370;9.748;2024-03-02T12:03:02;15.10;67.90
8888;DHT22;4480;52.370;9.748;2024-03-02T12:05:30;15.20;67.20
8888;DHT22;4480;52.370;9.748;2024-03-02T12:07:58;15.40;66.70
8888;DHT22;4480;52.370;9.748;2024-03-02T12:10:25;15.60;66.10
8888;DHT22;4480;52.370;9.748;2024-03-02T12:12:56;15.80;65.40
8888;DHT22;4480;52.370;9.748;2024-03-02T12:15:25;15.90;64.50
8888;DHT22;4480;52.370;9.748;2024-03-02T12:17:54;15.90;64.00
8888;DHT22;4480;52.370;9.748;2024-03-02T12:20:22;15.90;63.70
8888;DHT22;4480;52.370;9.748;2024-03-02T12:22:50;15.80;63.70
8888;DHT22;4480;52.370;9.748;2024-03-02T12:25:18;15.80;63.80
8888;DHT22;4480;52.370;9.748;2024-03-02T12:27:45;15.80;63.90
8888;DHT22;4480;52.370;9.748;2024-03-02T12:30:12;15.80;64.00
8888;DHT22;4480;52.370;9.748;2024-03-02T12:32:40;15.70;63.90
8888;DHT22;4480;52.370;9.748;2024-03-02T12:35:10;15.60;63.80
8888;DHT22;4480;52.370;9.748;2024-03-02T12:37:44;15.60;63.70
8888;DHT22;4480;52.370;9.748;2024-03-02T12:40:11;15.50;63.50
8888;DHT22;4480;52.370;9.748;2024-03-02T12:42:39;15.40;63.30
8888;DHT22;4480;52.370;9.748;2024-03-02T12:45:07;15.40;63.00
8888;DHT22;4480;52.370;9.748;2024-03-02T12:47:34;15.30;62.70
8888;DHT22;4480;52.370;9.748;2024-03-02T12:50:02;15.30;62.70
8888;DHT22;4480;52.370;9.748;2024-03-02T12:52:31;15.30;62.60
8888;DHT22;4480;52.370;9.748;2024-03-02T12:54:59;15.20;62.40
8888;DHT22;4480;52.370;9.748;2024-03-02T12:57:29;15.30;62.50
8888;DHT22;4480;52.370;9.748;2024-03-02T12:59:58;15.30;62.00
8888;DHT22;4480;52.370;9.748;2024-03-02T13:02:28;15.40;61.70
8888;DHT22;4480;52.370;9.748;2024-03-02T13:04:55;15.40;61.40
8888;DHT22;4480;52.370;9.748;2024-03-02T13:07:22;15.50;61.30
8888;DHT22;4480;52.370;9.748;2024-03-02T13:09:51;15.50;61.00
8888;DHT22;4480;52.370;9.748;2024-03-02T13:12:19;15.50;60.70
8888;DHT22;4480;52.370;9.748;2024-03-02T13:14:48;15.50;60.30
8888;DHT22;4480;52.370;9.748;2024-03-02T13:17:15;15.40;60.10
8888;DHT22;4480;52.370;9.748;2024-03-02T13:19:50;15.40;60.00
8888;DHT22;4480;52.370;9.748;2024-03-02T13:22:18;15.40;59.80
8888;DHT22;4480;52.370;9.748;2024-03-02T13:24:45;15.40;59.90
8888;DHT22;4480;52.370;9.748;2024-03-02T13:27:13;15.40;59.60
8888;DHT22;4480;52.370;9.748;2024-03-02T13:29:40;15.50;59.60
8888;DHT22;4480;52.370;9.748;2024-03-02T13:32:07;15.50;59.40
8888;DHT22;4480;52.370;9.748;2024-03-02T13:34:35;15.50;59.30
8888;DHT22;4480;52.370;9.748;2024-03-02T13:37:02;15.50;59.30
8888;DHT22;4480;52.370;9.748;2024-03-02T13:39:30;15.40;59.20
8888;DHT22;4480;52.370;9.748;2024-03-02T13:41:57;15.40;59.30
8888;DHT22;4480;52.370;9.748;2024-03-02T13:44:31;15.40;59.40
8888;DHT22;4480;52.370;9.748;2024-03-02T13:46:59;15.40;59.50
8888;DHT22;4480;52.370;9.748;2024-03-02T13:49:25;15.40;59.40
8888;DHT22;4480;52.370;9.748;2024-03-02T13:51:58;15.40;59.50
8888;DHT22;4480;52.370;9.748;2024-03-02T13:54:26;15.40;59.50
8888;DHT22;4480;52.370;9.748;2024-03-02T13:56:53;15.40;59.60
8888;DHT22;4480;52.370;9.748;2024-03-02T13:59:21;15.30;59.50
8888;DHT22;4480;52.370;9.748;2024-03-02T14:01:49;15.30;59.60
8888;DHT22;4480;52.370;9.748;2024-03-02T14:04:16;15.30;59.60
8888;DHT22;4480;52.370;9.748;2024-03-02T14:06:43;15.30;59.60
8888;DHT22;4480;52.370;9.748;2024-03-02T14:09:10;15.30;59.60
8888;DHT22;4480;52.370;9.748;2024-03-02T14:11:36;15.30;59.60
8888;DHT22;4480;52.370;9.748;2024-03-02T14:14:03;15.30;59.50
8888;DHT22;4480;52.370;9.748;2024-03-02T14:16:30;15.30;59.40
8888;DHT22;4480;52.370;9.748;2024-03-02T14:18:58;15.30;59.60
8888;DHT22;4480;52.370;9.748;2024-03-02T14:21:25;15.20;59.60
8888;DHT22;4480;52.370;9.748;2024-03-02T14:23:52;15.20;59.80
8888;DHT22;4480;52.370;9.748;2024-03-02T14:26:19;15.10;60.00
8888;DHT22;4480;52.370;9.748;2024-03-02T14:28:46;15.10;60.30
8888;DHT22;4480;52.370;9.748;2024-03-02T14:31:12;15.10;60.40
8888;DHT22;4480;52.370;9.748;2024-03-02T14:33:39;15.10;60.50
8888;DHT22;4480;52.370;9.748;2024-03-02T14:36:08;15.10;60.20
8888;DHT22;4480;52.370;9.748;2024-03-02T14:38:34;15.10;60.10
8888;DHT22;4480;52.370;9.748;2024-03-02T14:41:01;15.00;60.00
8888;DHT22;4480;52.370;9.748;2024-03-02T14:43:29;15.00;59.80
8888;DHT22;4480;52.370;9.748;2024-03-02T14:45:56;15.00;59.90
8888;DHT22;4480;52.370;9.748;2024-03-02T14:48:24;15.00;59.90
8888;DHT22;4480;52.370;9.748;2024-03-02T14:50:51;15.00;59.90
8888;DHT22;4480;52.370;9.748;2024-03-02T14:53:19;15.00;60.10
8888;DHT22;4480;52.370;9.748;2024-03-02T14:55:46;14.90;60.10
8888;DHT22;4480;52.370;9.748;2024-03-02T14:58:12;14.90;60.10
8888;DHT22;4480;52.370;9.748;2024-03-02T15:00:39;14.80;60.10
8888;DHT22;4480;52.370;9.748;2024-03-02T15:03:06;14.70;60.20
8888;DHT22;4480;52.370;9.748;2024-03-02T15:05:34;14.70;60.20
8888;DHT22;4480;52.370;9.748;2024-03-02T15:08:00;14.70;60.30
8888;DHT22;4480;52.370;9.748;2024-03-02T15:10:31;14.70;60.40
8888;DHT22;4480;52.370;9.748;2024-03-02T15:12:58;14.70;60.40
8888;DHT22;4480;52.370;9.748;2024-03-02T15:15:25;14.60;60.30
8888;DHT22;4480;52.370;9.748;2024-03-02T15:17:52;14.60;60.40
8888;DHT22;4480;52.370;9.748;2024-03-02T15:20:18;14.60;60.30
8888;DHT22;4480;52.370;9.748;2024-03-02T15:22:47;14.60;61.00
8888;DHT22;4480;52.370;9.748;2024-03-02T15:25:14;14.60;60.30
8888;DHT22;4480;52.370;9.748;2024-03-02T15:27:43;14.60;60.30
8888;DHT22;4480;52.370;9.748;2024-03-02T15:30:10;14.60;60.30
8888;DHT22;4480;52.370;9.748;2024-03-02T15:32:37;14.60;60.30
8888;DHT22;4480;52.370;9.748;2024-03-02T15:35:04;14.60;60.40
8888;DHT22;4480;52.370;9.748;2024-03-02T15:37:31;14.70;60.40
8888;DHT22;4480;52.370;9.748;2024-03-02T15:39:58;14.60;60.20
8888;DHT22;4480;52.370;9.748;2024-03-02T15:42:31;14.60;60.00
8888;DHT22;4480;52.370;9.748;2024-03-02T15:44:59;14.60;60.00
8888;DHT22;4480;52.370;9.748;2024-03-02T15:47:26;14.60;59.90
8888;DHT22;4480;52.370;9.748;2024-03-02T15:49:53;14.50;59.90
8888;DHT22;4480;52.370;9.748;2024-03-02T15:52:20;14.50;59.90
8888;DHT22;4480;52.370;9.748;2024-03-02T15:54:47;14.50;60.10
8888;DHT22;4480;52.370;9.748;2024-03-02T15:57:14;14.40;60.00
8888;DHT22;4480;52.370;9.748;2024-03-02T15:59:41;14.40;60.60
8888;DHT22;4480;52.370;9.748;2024-03-02T16:02:09;14.40;60.00
8888;DHT22;4480;52.370;9.748;2024-03-02T16:04:36;14.30;59.70
8888;DHT22;4480;52.370;9.748;2024-03-02T16:07:03;14.20;59.80
8888;DHT22;4480;52.370;9.748;2024-03-02T16:09:30;14.20;60.00
8888;DHT22;4480;52.370;9.748;2024-03-02T16:11:57;14.10;60.10
8888;DHT22;4480;52.370;9.748;2024-03-02T16:14:23;14.10;60.40
8888;DHT22;4480;52.370;9.748;2024-03-02T16:16:50;14.00;60.70